Time;durP1;ratioP1;P1;durP2;ratioP2;P2;SDS_P1;SDS_P2;PMS_P1;PMS_P2;Temp;Humidity;BMP_temperature;BMP_pressure;BME280_temperature;BME280_humidity;BME280_pressure;Samples;Min_cycle;Max_cycle;Signal;HPM_P1;HPM_P2
2021/10/31 00:00:24;;;;;;;31.70;22.07;;;;;;;6.12;70.63;101888.73;1825149;78;21105;-68
2021/10/31 00:02:51;;;;;;;31.33;22.60;;;;;;;6.05;70.51;101890.48;1828570;76;21520;-69
2021/10/31 00:05:17;;;;;;;32.98;22.75;;;;;;;5.98;70.34;101886.98;1815469;78;21556;-69
2021/10/31 00:07:44;;;;;;;31.20;21.35;;;;;;;5.92;70.18;101885.06;1835440;76;21069;-68
2021/10/31 00:10:13;;;;;;;30.85;21.55;;;;;;;5.83;70.00;101888.39;1822721;76;21081;-69
2021/10/31 00:12:41;;;;;;;26.30;19.60;;;;;;;5.70;69.84;101882.47;1821599;76;21081;-69
2021/10/31 00:15:09;;;;;;;26.77;19.67;;;;;;;5.54;69.76;101884.07;1830890;76;20979;-68
2021/10/31 00:17:37;;;;;;;28.15;21.37;;;;;;;5.38;69.77;101884.64;1829211;76;21046;-69
2021/10/31 00:20:08;;;;;;;27.87;20.68;;;;;;;5.29;69.78;101884.44;1829660;76;20970;-69
2021/10/31 00:22:36;;;;;;;26.40;19.82;;;;;;;5.25;69.73;101879.72;1829828;76;21620;-67
2021/10/31 00:25:06;;;;;;;25.72;20.00;;;;;;;5.23;69.65;101879.92;1835642;76;21117;-69
2021/10/31 00:27:34;;;;;;;24.00;19.17;;;;;;;5.21;69.58;101877.96;1825909;76;21272;-68
2021/10/31 00:30:00;;;;;;;24.52;19.30;;;;;;;5.16;69.47;101878.50;1833772;78;21089;-67
2021/10/31 00:32:27;;;;;;;24.45;18.95;;;;;;;5.12;69.42;101874.60;1831466;78;21196;-67
2021/10/31 00:34:54;;;;;;;27.42;19.57;;;;;;;5.08;69.31;101872.53;1824203;76;21600;-67
2021/10/31 00:37:21;;;;;;;25.08;19.48;;;;;;;5.03;69.27;101866.45;1812808;78;21022;-68
2021/10/31 00:39:49;;;;;;;22.32;17.37;;;;;;;4.92;69.21;101869.61;1824935;76;21053;-68
2021/10/31 00:42:15;;;;;;;24.63;18.70;;;;;;;4.85;69.27;101865.56;1823092;78;21112;-68
2021/10/31 00:44:42;;;;;;;23.73;17.67;;;;;;;4.80;69.32;101868.44;1833051;76;21083;-68
2021/10/31 00:47:10;;;;;;;25.20;18.17;;;;;;;4.74;69.37;101864.73;1833481;78;21034;-68
2021/10/31 00:49:37;;;;;;;21.10;17.02;;;;;;;4.69;69.39;101863.14;1833220;76;21109;-68
2021/10/31 00:52:05;;;;;;;26.10;18.10;;;;;;;4.65;69.47;101861.88;1833616;78;21003;-68
2021/10/31 00:54:34;;;;;;;23.52;18.75;;;;;;;4.62;69.54;101861.73;1801096;79;21013;-68
2021/10/31 00:57:01;;;;;;;27.15;18.70;;;;;;;4.57;69.58;101857.99;1803731;77;21000;-69
2021/10/31 00:59:28;;;;;;;26.62;18.55;;;;;;;4.56;69.66;101856.36;1807096;77;21023;-68
2021/10/31 01:01:55;;;;;;;29.48;19.52;;;;;;;4.56;69.70;101853.72;1847685;76;21150;-68
2021/10/31 01:04:23;;;;;;;26.80;18.95;;;;;;;4.53;69.64;101846.96;1850437;75;21556;-68
2021/10/31 01:07:06;;;;;;;26.07;18.65;;;;;;;4.50;69.61;101845.19;1815121;76;21093;-68
2021/10/31 01:10:09;;;;;;;26.62;18.20;;;;;;;4.43;69.55;101835.34;1824369;76;21136;-68
2021/10/31 01:13:08;;;;;;;26.05;17.32;;;;;;;4.35;69.59;101842.07;1832661;76;21064;-67
2021/10/31 01:15:57;;;;;;;26.10;19.12;;;;;;;4.27;69.66;101835.55;1821340;76;21984;-68
2021/10/31 01:19:04;;;;;;;22.35;17.27;;;;;;;4.25;69.80;101830.95;1821070;76;21041;-67
2021/10/31 01:22:11;;;;;;;26.10;18.42;;;;;;;4.26;69.82;101834.42;1828670;76;21022;-69
2021/10/31 01:25:08;;;;;;;26.52;18.73;;;;;;;4.21;69.89;101829.66;1808762;76;21003;-68
2021/10/31 01:28:08;;;;;;;23.67;17.05;;;;;;;4.19;70.00;101827.72;1831698;76;21061;-68
2021/10/31 01:31:33;;;;;;;24.10;17.37;;;;;;;4.18;70.03;101827.41;1826772;78;21122;-70
2021/10/31 01:34:23;;;;;;;24.40;17.55;;;;;;;4.14;70.08;101827.44;1832579;76;21101;-69
2021/10/31 01:36:58;;;;;;;23.80;17.27;;;;;;;4.10;70.09;101823.52;1825817;76;21007;-69
2021/10/31 01:39:41;;;;;;;22.85;17.30;;;;;;;4.09;70.12;101825.86;1824183;76;21459;-69
2021/10/31 01:42:25;;;;;;;23.42;17.57;;;;;;;4.07;70.14;101831.31;1818351;76;21040;-68
2021/10/31 01:45:03;;;;;;;24.47;17.80;;;;;;;4.06;70.15;101825.72;1819865;78;21156;-69
2021/10/31 01:47:53;;;;;;;24.82;17.82;;;;;;;4.06;70.17;101827.55;1834320;76;21013;-67
2021/10/31 01:50:45;;;;;;;29.60;19.07;;;;;;;4.04;70.17;101821.60;1808138;78;21075;-68
2021/10/31 01:53:34;;;;;;;25.30;18.80;;;;;;;3.95;70.21;101823.03;1828757;76;20939;-67
2021/10/31 01:56:08;;;;;;;26.23;19.27;;;;;;;3.90;70.34;101822.73;1833497;77;21010;-69
2021/10/31 01:58:41;;;;;;;25.00;18.73;;;;;;;3.87;70.44;101820.97;1822260;77;21539;-68
2021/10/31 02:01:07;;;;;;;25.30;19.02;;;;;;;3.85;70.54;101825.12;1818591;78;20975;-68
2021/10/31 02:03:34;;;;;;;25.57;18.35;;;;;;;3.84;70.53;101820.00;1839853;77;21124;-68
2021/10/31 02:06:01;;;;;;;23.83;18.40;;;;;;;3.84;70.58;101820.82;1836523;77;21529;-67
2021/10/31 02:08:28;;;;;;;25.82;19.00;;;;;;;3.82;70.61;101820.20;1836313;77;21018;-69
2021/10/31 02:10:56;;;;;;;24.92;18.82;;;;;;;3.81;70.65;101820.36;1826597;77;21348;-69
2021/10/31 02:13:25;;;;;;;25.15;19.95;;;;;;;3.78;70.64;101818.08;1790437;78;21529;-68
2021/10/31 02:15:52;;;;;;;26.57;19.85;;;;;;;3.73;70.66;101818.12;1837353;77;21498;-68
2021/10/31 02:18:23;;;;;;;27.67;20.23;;;;;;;3.69;70.69;101816.86;1809732;77;21016;-68
2021/10/31 02:20:58;;;;;;;27.70;19.60;;;;;;;3.67;70.67;101813.56;1823514;77;20920;-68
2021/10/31 02:23:24;;;;;;;28.23;20.12;;;;;;;3.64;70.61;101819.20;1852785;76;21105;-67
2021/10/31 02:25:52;;;;;;;29.02;20.23;;;;;;;3.62;70.57;101812.45;1826495;76;21053;-67
2021/10/31 02:28:19;;;;;;;31.42;22.25;;;;;;;3.58;70.54;101809.86;1832400;76;21454;-68
2021/10/31 02:30:48;;;;;;;35.68;23.77;;;;;;;3.55;70.54;101811.53;1830031;78;21411;-68
2021/10/31 02:33:15;;;;;;;29.18;20.17;;;;;;;3.50;70.58;101804.97;1814590;76;20974;-68
2021/10/31 02:35:42;;;;;;;29.15;20.90;;;;;;;3.52;70.54;101819.31;1831907;77;22090;-68
2021/10/31 02:38:08;;;;;;;29.77;20.90;;;;;;;3.49;70.50;101807.81;1823814;78;21077;-67
2021/10/31 02:40:36;;;;;;;31.60;21.93;;;;;;;3.51;70.47;101814.53;1831341;76;21078;-67
2021/10/31 02:43:04;;;;;;;31.80;20.90;;;;;;;3.49;70.37;101812.59;1832639;78;21038;-68
2021/10/31 02:45:33;;;;;;;30.25;20.92;;;;;;;3.45;70.34;101804.68;1835283;76;21152;-68
2021/10/31 02:48:04;;;;;;;31.73;21.77;;;;;;;3.42;70.23;101810.34;1831269;78;21141;-67
2021/10/31 02:50:37;;;;;;;28.38;20.77;;;;;;;3.40;70.14;101815.48;1802889;76;27359;-68
2021/10/31 02:53:34;;;;;;;28.15;21.15;;;;;;;3.38;70.06;101815.64;1824422;77;21512;-68
2021/10/31 02:56:34;;;;;;;33.67;22.15;;;;;;;3.33;70.01;101812.73;1805011;77;21062;-67
2021/10/31 02:59:26;;;;;;;29.87;20.60;;;;;;;3.30;69.97;101810.45;1814222;77;21043;-67
2021/10/31 03:01:53;;;;;;;31.27;21.33;;;;;;;3.29;69.95;101813.59;1812608;78;21297;-68
2021/10/31 03:04:21;;;;;;;32.13;22.15;;;;;;;3.28;69.96;101813.25;1830083;76;20951;-67
2021/10/31 03:06:48;;;;;;;38.67;23.67;;;;;;;3.26;69.94;101812.63;1836058;76;21429;-68
2021/10/31 03:09:17;;;;;;;33.80;21.90;;;;;;;3.26;69.96;101813.94;1834200;76;21061;-68
2021/10/31 03:11:44;;;;;;;33.67;22.70;;;;;;;3.24;69.94;101808.51;1836055;76;21476;-67
2021/10/31 03:14:11;;;;;;;33.58;22.80;;;;;;;3.21;69.93;101804.40;1836169;76;21132;-67
2021/10/31 03:16:37;;;;;;;36.00;23.67;;;;;;;3.19;69.96;101805.56;1835734;76;20979;-67
2021/10/31 03:19:05;;;;;;;36.10;24.45;;;;;;;3.19;69.96;101806.89;1808632;78;21046;-67
2021/10/31 03:21:31;;;;;;;35.95;23.42;;;;;;;3.18;69.94;101806.58;1824042;76;21033;-67
2021/10/31 03:23:59;;;;;;;33.85;23.32;;;;;;;3.19;69.93;101801.61;1828006;77;21034;-68
2021/10/31 03:26:26;;;;;;;35.85;24.12;;;;;;;3.18;69.87;101802.61;1802475;79;21085;-68
2021/10/31 03:28:53;;;;;;;37.55;24.52;;;;;;;3.19;69.89;101797.17;1803458;78;20987;-68
2021/10/31 03:31:20;;;;;;;35.98;24.63;;;;;;;3.21;69.81;101791.70;1833058;75;21017;-68
2021/10/31 03:33:47;;;;;;;36.75;24.52;;;;;;;3.22;69.74;101793.33;1814002;77;21485;-68
2021/10/31 03:36:14;;;;;;;33.50;22.70;;;;;;;3.21;69.68;101793.02;1845277;77;20947;-68
2021/10/31 03:38:41;;;;;;;35.40;24.23;;;;;;;3.17;69.60;101799.66;1828737;77;21111;-68
2021/10/31 03:41:08;;;;;;;33.75;22.82;;;;;;;3.09;69.65;101800.53;1822473;77;20947;-68
2021/10/31 03:43:36;;;;;;;33.25;23.40;;;;;;;3.07;69.66;101790.66;1824114;78;21006;-68
2021/10/31 03:46:03;;;;;;;34.38;21.87;;;;;;;3.03;69.65;101784.92;1818630;78;20948;-69
2021/10/31 03:48:31;;;;;;;32.17;21.68;;;;;;;3.02;69.67;101791.17;1823524;76;21023;-68
2021/10/31 03:50:58;;;;;;;31.95;22.80;;;;;;;3.00;69.67;101794.51;1803312;76;21148;-69
2021/10/31 03:53:25;;;;;;;29.95;20.57;;;;;;;2.98;69.68;101791.21;1834338;78;20967;-69
2021/10/31 03:55:54;;;;;;;31.90;23.05;;;;;;;2.91;69.72;101788.96;1835326;76;20934;-70
2021/10/31 03:58:21;;;;;;;34.58;23.10;;;;;;;2.86;69.83;101792.61;1833478;76;21061;-67
2021/10/31 04:00:47;;;;;;;30.15;22.17;;;;;;;2.86;69.87;101795.25;1823168;76;21459;-68
2021/10/31 04:03:14;;;;;;;35.10;23.85;;;;;;;2.83;69.82;101791.67;1819062;76;22429;-68
2021/10/31 04:05:41;;;;;;;32.95;22.42;;;;;;;2.80;69.82;101788.06;1819108;76;21018;-68
2021/10/31 04:08:07;;;;;;;32.58;22.35;;;;;;;2.80;69.82;101785.42;1830063;76;21077;-68
2021/10/31 04:10:34;;;;;;;33.28;22.10;;;;;;;2.81;69.85;101781.27;1832124;76;21037;-68
2021/10/31 04:13:02;;;;;;;31.30;21.85;;;;;;;2.85;69.77;101776.97;1833927;76;21473;-68
2021/10/31 04:15:30;;;;;;;28.45;20.37;;;;;;;2.83;69.65;101778.48;1828171;76;21130;-68
2021/10/31 04:17:59;;;;;;;30.92;21.12;;;;;;;2.80;69.68;101782.78;1834175;76;21006;-68
2021/10/31 04:20:25;;;;;;;27.98;20.27;;;;;;;2.80;69.71;101774.87;1831123;76;21090;-68
2021/10/31 04:22:52;;;;;;;29.02;19.98;;;;;;;2.80;69.72;101775.69;1827874;76;21497;-68
2021/10/31 04:25:19;;;;;;;30.37;21.33;;;;;;;2.80;69.75;101770.41;1824501;76;20960;-68
2021/10/31 04:27:45;;;;;;;26.57;19.25;;;;;;;2.77;69.75;101776.03;1830440;78;21142;-68
2021/10/31 04:30:13;;;;;;;26.48;19.73;;;;;;;2.75;69.85;101780.66;1823779;77;21059;-68
2021/10/31 04:32:39;;;;;;;28.77;19.30;;;;;;;2.76;69.90;101776.19;1819310;77;21513;-68
2021/10/31 04:35:08;;;;;;;26.65;20.12;;;;;;;2.75;69.93;101772.73;1855891;75;20932;-69
2021/10/31 04:37:38;;;;;;;27.27;20.12;;;;;;;2.75;69.96;101765.33;1857086;77;20955;-68
2021/10/31 04:40:07;;;;;;;30.40;21.17;;;;;;;2.74;69.96;101772.92;1821055;77;21762;-69
2021/10/31 04:42:35;;;;;;;26.60;18.62;;;;;;;2.68;70.03;101769.16;1823115;78;21025;-68
2021/10/31 04:45:01;;;;;;;29.95;21.27;;;;;;;2.64;70.08;101768.38;1820839;77;21017;-69
2021/10/31 04:47:28;;;;;;;29.75;21.05;;;;;;;2.62;70.17;101773.00;1830217;78;21022;-69
2021/10/31 04:49:54;;;;;;;34.40;23.22;;;;;;;2.56;70.18;101762.63;1795024;77;21026;-68
2021/10/31 04:52:21;;;;;;;34.98;24.18;;;;;;;2.50;70.19;101765.97;1830302;78;21807;-68
2021/10/31 04:54:48;;;;;;;38.42;26.33;;;;;;;2.43;70.29;101768.47;1822433;78;21018;-68
2021/10/31 04:57:15;;;;;;;40.60;26.90;;;;;;;2.40;70.43;101767.50;1824478;77;21027;-68
2021/10/31 04:59:42;;;;;;;41.18;27.30;;;;;;;2.38;70.53;101767.38;1795127;80;21063;-68
2021/10/31 05:02:09;;;;;;;39.00;24.95;;;;;;;2.37;70.71;101771.83;1847982;76;21015;-69
2021/10/31 05:04:35;;;;;;;33.40;23.98;;;;;;;2.38;70.86;101779.23;1856196;75;21120;-68
2021/10/31 05:07:04;;;;;;;35.08;23.95;;;;;;;2.35;71.03;101773.30;1846778;77;21027;-68
2021/10/31 05:09:31;;;;;;;32.00;23.07;;;;;;;2.37;71.09;101774.47;1828264;76;21478;-69
2021/10/31 05:11:59;;;;;;;29.45;21.07;;;;;;;2.40;71.16;101769.32;1783021;76;21050;-69
2021/10/31 05:14:27;;;;;;;29.52;22.10;;;;;;;2.48;71.08;101773.25;1831218;75;20967;-69
2021/10/31 05:16:55;;;;;;;29.35;20.75;;;;;;;2.57;71.02;101764.30;1855563;75;21950;-69
2021/10/31 05:19:22;;;;;;;30.10;21.80;;;;;;;2.65;70.98;101770.83;1857162;75;20983;-69
2021/10/31 05:21:49;;;;;;;29.00;21.62;;;;;;;2.73;70.95;101774.75;1823177;77;21047;-69
2021/10/31 05:24:15;;;;;;;31.60;23.15;;;;;;;2.82;70.92;101776.81;1811055;78;21423;-69
2021/10/31 05:26:42;;;;;;;31.93;22.37;;;;;;;2.91;70.83;101770.98;1832233;76;20986;-69
2021/10/31 05:29:08;;;;;;;30.23;23.15;;;;;;;2.99;70.78;101774.88;1837422;78;20953;-69
2021/10/31 05:31:35;;;;;;;28.67;22.20;;;;;;;3.07;70.72;101777.97;1815476;76;21026;-69
2021/10/31 05:34:02;;;;;;;31.90;23.57;;;;;;;3.12;70.66;101771.14;1832793;78;21038;-69
2021/10/31 05:36:29;;;;;;;31.97;23.57;;;;;;;3.19;70.67;101776.52;1833456;76;21105;-69
2021/10/31 05:38:56;;;;;;;32.00;24.02;;;;;;;3.22;70.81;101780.13;1824841;77;20943;-69
2021/10/31 05:41:23;;;;;;;30.50;22.37;;;;;;;3.33;70.80;101770.48;1809880;76;21194;-69
2021/10/31 05:43:50;;;;;;;31.65;23.02;;;;;;;3.40;70.77;101767.94;1836008;78;20987;-68
2021/10/31 05:46:16;;;;;;;29.20;22.65;;;;;;;3.46;70.81;101775.15;1836937;76;21050;-68
2021/10/31 05:48:44;;;;;;;33.85;24.00;;;;;;;3.53;70.85;101777.39;1817868;78;20970;-69
2021/10/31 05:51:10;;;;;;;33.15;25.25;;;;;;;3.60;70.89;101776.98;1803958;79;21040;-68
2021/10/31 05:53:37;;;;;;;33.78;24.50;;;;;;;3.68;70.96;101777.39;1829378;76;21129;-68
2021/10/31 05:56:05;;;;;;;36.83;26.70;;;;;;;3.79;70.97;101776.95;1836898;78;20955;-68
2021/10/31 05:58:31;;;;;;;39.38;28.85;;;;;;;3.86;71.02;101775.22;1833430;76;21117;-68
2021/10/31 06:00:58;;;;;;;39.00;29.15;;;;;;;3.96;71.10;101772.30;1857376;77;20968;-68
2021/10/31 06:03:25;;;;;;;45.43;31.65;;;;;;;4.07;71.08;101774.97;1819139;78;21585;-68
2021/10/31 06:05:53;;;;;;;38.40;29.18;;;;;;;4.26;70.91;101773.08;1837901;77;21065;-68
2021/10/31 06:08:21;;;;;;;42.62;31.55;;;;;;;4.39;70.83;101775.88;1835875;76;21041;-68
2021/10/31 06:10:48;;;;;;;49.53;35.63;;;;;;;4.49;70.79;101780.06;1817622;76;21078;-68
2021/10/31 06:13:17;;;;;;;46.08;35.05;;;;;;;4.61;70.81;101785.20;1836256;76;21572;-68
2021/10/31 06:15:49;;;;;;;53.17;39.48;;;;;;;4.72;70.79;101787.84;1807587;78;20927;-68
2021/10/31 06:18:19;;;;;;;52.97;38.50;;;;;;;4.81;70.81;101786.72;1835523;76;20974;-68
2021/10/31 06:20:46;;;;;;;46.35;33.13;;;;;;;4.92;70.84;101784.38;1835718;76;21579;-68
2021/10/31 06:23:16;;;;;;;44.65;32.58;;;;;;;5.04;70.86;101787.86;1834678;76;21505;-68
2021/10/31 06:25:44;;;;;;;43.80;30.77;;;;;;;5.15;70.89;101788.66;1836861;78;21546;-68
2021/10/31 06:28:11;;;;;;;46.85;33.30;;;;;;;5.28;70.92;101788.77;1817831;78;21061;-68
2021/10/31 06:30:38;;;;;;;43.45;32.33;;;;;;;5.40;70.93;101782.45;1825765;77;21768;-69
2021/10/31 06:33:04;;;;;;;45.60;32.20;;;;;;;5.53;70.91;101783.88;1823022;78;21438;-69
2021/10/31 06:35:33;;;;;;;42.48;30.70;;;;;;;5.67;70.89;101784.77;1857299;77;21027;-69
2021/10/31 06:38:02;;;;;;;40.10;31.05;;;;;;;5.80;70.90;101777.42;1849001;77;21014;-69
2021/10/31 06:40:28;;;;;;;41.98;31.77;;;;;;;5.94;70.90;101777.82;1848297;77;21030;-69
2021/10/31 06:42:55;;;;;;;44.42;32.90;;;;;;;6.08;70.93;101778.70;1847287;77;21021;-69
2021/10/31 06:45:21;;;;;;;42.08;31.25;;;;;;;6.22;70.97;101780.42;1848956;77;21023;-69
2021/10/31 06:47:48;;;;;;;44.50;32.38;;;;;;;6.37;71.06;101775.45;1847758;77;21102;-69
2021/10/31 06:50:15;;;;;;;44.48;32.17;;;;;;;6.53;71.18;101771.12;1804227;77;20946;-68
2021/10/31 06:52:42;;;;;;;47.93;33.83;;;;;;;6.67;71.27;101776.77;1796691;79;21033;-69
2021/10/31 06:55:10;;;;;;;49.65;34.98;;;;;;;6.80;71.42;101773.31;1798845;76;22149;-68
2021/10/31 06:57:40;;;;;;;48.10;32.88;;;;;;;6.95;71.61;101773.15;1809991;76;21049;-68
2021/10/31 07:00:09;;;;;;;53.52;37.30;;;;;;;7.12;71.71;101769.58;1836368;78;20971;-68
2021/10/31 07:02:36;;;;;;;45.17;33.50;;;;;;;7.32;71.71;101770.91;1836527;76;21482;-68
2021/10/31 07:05:06;;;;;;;47.20;34.03;;;;;;;7.50;71.74;101767.09;1852487;77;21521;-68
2021/10/31 07:07:33;;;;;;;44.10;33.08;;;;;;;7.62;71.81;101770.77;1826938;78;21475;-69
2021/10/31 07:10:00;;;;;;;48.42;35.15;;;;;;;7.75;71.85;101770.73;1828621;77;21050;-68
2021/10/31 07:12:27;;;;;;;51.75;35.15;;;;;;;7.88;71.84;101768.55;1822725;77;21034;-69
2021/10/31 07:14:53;;;;;;;45.83;33.55;;;;;;;8.06;71.71;101766.57;1841268;77;21038;-69
2021/10/31 07:17:20;;;;;;;48.68;35.43;;;;;;;8.20;71.60;101769.99;1841735;77;21489;-69
2021/10/31 07:19:47;;;;;;;46.80;35.25;;;;;;;8.30;71.57;101769.02;1842741;77;21048;-68
2021/10/31 07:22:17;;;;;;;48.70;34.40;;;;;;;8.44;71.49;101764.47;1835216;77;21007;-68
2021/10/31 07:24:45;;;;;;;43.58;32.88;;;;;;;8.60;71.32;101763.98;1829475;77;21022;-68
2021/10/31 07:27:12;;;;;;;44.58;34.13;;;;;;;8.76;71.16;101764.50;1838182;77;21007;-70
2021/10/31 07:29:40;;;;;;;42.30;31.62;;;;;;;8.89;71.05;101762.56;1841694;77;20921;-68
2021/10/31 07:32:09;;;;;;;43.92;33.23;;;;;;;9.03;70.97;101760.61;1842768;77;21175;-69
2021/10/31 07:34:35;;;;;;;46.70;34.43;;;;;;;9.15;70.79;101758.06;1842351;77;20976;-69
2021/10/31 07:37:04;;;;;;;48.50;36.42;;;;;;;9.28;70.73;101758.45;1826042;77;21003;-69
2021/10/31 07:39:32;;;;;;;42.65;32.20;;;;;;;9.39;70.65;101754.56;1826097;77;21026;-68
2021/10/31 07:41:59;;;;;;;43.35;31.45;;;;;;;9.51;70.60;101748.48;1832143;76;20964;-69
2021/10/31 07:44:26;;;;;;;42.78;30.92;;;;;;;9.66;70.54;101756.16;1823829;77;21118;-68
2021/10/31 07:46:54;;;;;;;45.70;33.25;;;;;;;9.78;70.41;101754.39;1833824;77;21034;-68
2021/10/31 07:49:22;;;;;;;43.10;31.95;;;;;;;9.91;70.30;101752.91;1839945;77;21008;-69
2021/10/31 07:51:49;;;;;;;44.15;33.13;;;;;;;10.05;70.17;101753.55;1835729;77;21019;-68
2021/10/31 07:54:21;;;;;;;42.80;31.23;;;;;;;10.21;69.87;101752.13;1828706;77;20998;-68
2021/10/31 07:56:44;;;;;;;39.83;28.42;;;;;;;10.37;69.65;101756.08;1803984;77;20982;-68
2021/10/31 07:59:11;;;;;;;35.30;25.17;;;;;;;10.50;69.28;101749.22;1824990;77;20975;-68
2021/10/31 08:01:37;;;;;;;34.35;26.30;;;;;;;10.64;68.98;101747.97;1796457;79;21178;-69
2021/10/31 08:04:04;;;;;;;33.50;26.00;;;;;;;10.77;68.56;101749.64;1826872;77;21578;-70
2021/10/31 08:06:31;;;;;;;35.17;26.35;;;;;;;10.87;68.28;101755.23;1843636;77;20924;-69
2021/10/31 08:08:57;;;;;;;33.13;24.30;;;;;;;11.01;67.83;101755.83;1838230;77;21120;-69
2021/10/31 08:11:24;;;;;;;31.73;24.12;;;;;;;11.13;67.38;101751.33;1836993;78;21034;-69
2021/10/31 08:13:50;;;;;;;31.90;23.45;;;;;;;11.25;67.11;101751.31;1835787;76;21176;-70
2021/10/31 08:16:20;;;;;;;33.40;25.55;;;;;;;11.37;66.67;101740.10;1837396;78;21022;-70
2021/10/31 08:18:46;;;;;;;30.75;23.07;;;;;;;11.50;66.26;101741.73;1836236;76;21022;-70
2021/10/31 08:21:13;;;;;;;31.07;23.50;;;;;;;11.60;65.78;101737.94;1832798;76;21152;-68
2021/10/31 08:23:42;;;;;;;32.15;24.67;;;;;;;11.72;65.35;101737.94;1836968;78;21014;-70
2021/10/31 08:26:08;;;;;;;30.12;22.65;;;;;;;11.82;64.84;101735.99;1824947;76;21490;-69
2021/10/31 08:28:39;;;;;;;25.70;19.95;;;;;;;11.93;64.50;101735.17;1830832;76;20982;-69
2021/10/31 08:31:04;;;;;;;29.05;22.35;;;;;;;12.06;64.21;101735.43;1836082;78;21062;-69
2021/10/31 08:33:35;;;;;;;26.30;21.30;;;;;;;12.14;63.72;101733.70;1836229;76;21151;-69
2021/10/31 08:36:03;;;;;;;27.55;20.85;;;;;;;12.22;63.25;101737.36;1822883;78;21049;-69
2021/10/31 08:38:31;;;;;;;25.82;19.48;;;;;;;12.35;62.96;101730.91;1846765;75;21010;-69
2021/10/31 08:40:58;;;;;;;27.55;19.92;;;;;;;12.49;62.50;101734.91;1815818;77;21449;-69
2021/10/31 08:43:25;;;;;;;22.73;18.05;;;;;;;12.62;61.99;101731.11;1833503;76;21042;-69
2021/10/31 08:45:52;;;;;;;24.18;17.48;;;;;;;12.76;61.59;101726.25;1816056;77;21075;-69
2021/10/31 08:48:19;;;;;;;23.43;18.30;;;;;;;12.88;60.89;101727.80;1821749;77;21093;-68
2021/10/31 08:50:47;;;;;;;23.07;16.47;;;;;;;12.99;60.34;101730.11;1810112;77;21363;-69
2021/10/31 08:53:14;;;;;;;21.03;16.13;;;;;;;13.10;59.91;101729.23;1831833;76;21586;-69
2021/10/31 08:55:41;;;;;;;26.90;18.40;;;;;;;13.21;59.45;101724.02;1830134;76;21201;-69
2021/10/31 08:58:08;;;;;;;21.43;16.77;;;;;;;13.31;58.99;101716.14;1833407;76;21289;-70
2021/10/31 09:00:37;;;;;;;20.70;15.17;;;;;;;13.42;58.72;101717.89;1856765;77;21330;-69
2021/10/31 09:03:05;;;;;;;20.07;15.87;;;;;;;13.56;58.42;101711.13;1816098;77;21289;-68
2021/10/31 09:05:33;;;;;;;22.87;16.30;;;;;;;13.69;57.99;101713.14;1823275;78;21209;-68
2021/10/31 09:08:01;;;;;;;21.90;15.60;;;;;;;13.80;57.49;101706.31;1824658;77;21235;-69
2021/10/31 09:10:30;;;;;;;18.27;14.60;;;;;;;13.91;56.96;101705.09;1858001;77;21237;-69
2021/10/31 09:12:58;;;;;;;18.10;13.67;;;;;;;14.01;56.54;101701.98;1832022;77;21191;-70
2021/10/31 09:15:26;;;;;;;17.80;13.07;;;;;;;14.13;56.13;101701.05;1821773;77;21066;-68
2021/10/31 09:17:54;;;;;;;15.80;11.97;;;;;;;14.22;55.44;101696.31;1857444;77;21227;-69
2021/10/31 09:20:25;;;;;;;13.90;10.90;;;;;;;14.29;54.97;101696.92;1856962;75;21533;-68
2021/10/31 09:22:50;;;;;;;12.60;10.37;;;;;;;14.37;54.37;101694.83;1822067;78;21283;-68
2021/10/31 09:25:16;;;;;;;14.50;10.47;;;;;;;14.45;53.94;101691.70;1820744;78;21220;-69
2021/10/31 09:27:43;;;;;;;12.13;9.87;;;;;;;14.53;53.39;101694.75;1855263;75;21635;-69
2021/10/31 09:30:11;;;;;;;12.07;9.10;;;;;;;14.65;53.05;101696.47;1856231;75;21306;-69
2021/10/31 09:32:47;;;;;;;13.50;10.27;;;;;;;14.73;52.33;101691.95;1824049;77;21399;-68
2021/10/31 09:35:20;;;;;;;15.43;10.60;;;;;;;14.80;52.01;101694.43;1830494;77;21177;-68
2021/10/31 09:37:53;;;;;;;12.70;9.20;;;;;;;14.87;51.92;101693.16;1831260;77;21227;-69
2021/10/31 09:40:19;;;;;;;13.20;9.80;;;;;;;14.98;51.64;101688.66;1822252;77;21190;-69
2021/10/31 09:42:48;;;;;;;13.40;9.50;;;;;;;15.09;51.15;101684.14;1798456;77;21759;-70
2021/10/31 09:45:15;;;;;;;14.30;9.27;;;;;;;15.14;50.49;101679.62;1818532;77;21246;-69
2021/10/31 09:47:44;;;;;;;14.73;10.00;;;;;;;15.20;50.40;101681.27;1821851;77;21135;-69
2021/10/31 09:50:10;;;;;;;11.37;8.57;;;;;;;15.23;50.18;101673.19;1806359;78;21193;-69
2021/10/31 09:52:37;;;;;;;13.37;9.00;;;;;;;15.29;50.08;101674.84;1854186;75;21370;-68
2021/10/31 09:55:05;;;;;;;12.33;9.03;;;;;;;15.39;50.05;101672.20;1823123;78;21375;-69
2021/10/31 09:57:32;;;;;;;12.07;9.80;;;;;;;15.46;49.54;101663.88;1784785;79;21859;-68
2021/10/31 10:00:00;;;;;;;12.40;8.53;;;;;;;15.48;49.42;101660.41;1743878;78;21505;-68
2021/10/31 10:03:05;;;;;;;15.50;9.47;;;;;;;15.53;49.35;101653.70;1815379;78;21386;-69
2021/10/31 10:05:27;;;;;;;12.73;8.80;;;;;;;15.62;48.93;101664.77;1796277;77;21867;-70
2021/10/31 10:08:16;;;;;;;11.73;8.77;;;;;;;15.68;48.66;101654.31;1808549;78;21403;-78
2021/10/31 10:10:47;;;;;;;13.07;8.80;;;;;;;15.75;48.44;101654.07;1815966;77;21883;-70
2021/10/31 10:13:24;;;;;;;16.77;8.93;;;;;;;15.79;48.29;101654.61;1845624;75;26680;-69
2021/10/31 10:15:52;;;;;;;15.10;9.00;;;;;;;15.85;48.03;101644.13;1823074;77;21028;-69
2021/10/31 10:18:32;;;;;;;13.20;8.93;;;;;;;15.97;47.56;101638.51;1855007;76;21888;-68
2021/10/31 10:21:18;;;;;;;14.27;8.73;;;;;;;15.97;47.56;101638.51;1823376;77;21770;-68
2021/10/31 10:24:04;;;;;;;13.07;8.50;;;;;;;16.04;47.38;101631.52;1823356;77;21520;-68
2021/10/31 10:26:38;;;;;;;11.30;7.87;;;;;;;16.06;47.15;101628.83;1822494;77;21654;-69
2021/10/31 10:29:24;;;;;;;12.27;8.80;;;;;;;16.10;46.74;101616.97;1809045;77;21468;-69
2021/10/31 10:31:55;;;;;;;13.23;8.73;;;;;;;16.07;46.85;101618.31;1823537;77;21401;-69
2021/10/31 10:34:41;;;;;;;11.78;8.78;;;;;;;16.07;46.85;101618.31;1823868;77;21591;-69
2021/10/31 10:37:10;;;;;;;14.17;8.57;;;;;;;16.13;46.79;101611.05;1857625;77;21050;-68
2021/10/31 10:39:38;;;;;;;12.13;7.80;;;;;;;16.26;46.20;101608.36;1851815;76;22010;-68
2021/10/31 10:42:06;;;;;;;12.67;7.93;;;;;;;16.26;46.20;101608.36;1815221;78;21637;-69
2021/10/31 10:44:38;;;;;;;10.53;7.27;;;;;;;16.30;46.22;101605.39;1820637;77;21725;-70
2021/10/31 10:47:16;;;;;;;10.67;7.03;;;;;;;16.34;46.10;101600.53;1829547;76;22133;-69
2021/10/31 10:49:43;;;;;;;10.67;7.37;;;;;;;16.40;45.62;101603.50;1822517;78;22224;-69
2021/10/31 10:52:23;;;;;;;11.77;7.10;;;;;;;16.43;45.17;101593.26;1821914;76;21628;-69
2021/10/31 10:55:12;;;;;;;9.95;6.70;;;;;;;16.43;45.17;101593.26;1822823;78;21575;-68
2021/10/31 10:57:55;;;;;;;9.63;7.10;;;;;;;16.42;45.10;101585.72;1838900;76;20919;-68
2021/10/31 11:00:34;;;;;;;8.57;6.77;;;;;;;16.41;44.94;101587.58;1837292;77;21594;-69
2021/10/31 11:03:08;;;;;;;10.33;6.57;;;;;;;16.43;45.07;101585.97;1834511;76;21729;-69
2021/10/31 11:05:45;;;;;;;9.07;6.20;;;;;;;16.43;44.70;101583.82;1838117;76;21642;-70
2021/10/31 11:08:21;;;;;;;9.13;5.83;;;;;;;16.43;44.71;101577.88;1822925;77;21770;-69
2021/10/31 11:10:55;;;;;;;7.77;6.37;;;;;;;16.45;44.41;101574.36;1805910;78;21645;-69
2021/10/31 11:13:23;;;;;;;9.23;6.20;;;;;;;16.45;44.27;101573.01;1854758;75;21744;-69
2021/10/31 11:15:50;;;;;;;9.30;6.63;;;;;;;16.45;44.26;101570.31;1823198;77;21644;-69
2021/10/31 11:18:17;;;;;;;9.03;5.80;;;;;;;16.50;44.15;101567.62;1821968;77;21700;-68
2021/10/31 11:20:46;;;;;;;8.30;6.00;;;;;;;16.51;44.04;101571.12;1815229;79;22203;-69
2021/10/31 11:23:16;;;;;;;9.63;6.10;;;;;;;16.53;44.08;101563.58;1817830;77;22184;-69
2021/10/31 11:25:46;;;;;;;8.53;5.70;;;;;;;16.56;43.87;101566.55;1822031;78;22172;-68
2021/10/31 11:28:15;;;;;;;7.20;5.73;;;;;;;16.57;43.74;101560.05;1826357;77;20995;-69
2021/10/31 11:30:47;;;;;;;8.35;5.95;;;;;;;16.60;44.04;101556.81;1817712;78;21645;-69